sensor_id;sensor_type;location;lat;lon;timestamp;P1;durP1;ratioP1;P2;durP2;ratioP2
13240;SDS011;6687;47.790;7.322;2022-12-24T06:12:44;0.30;;;0.30;;
13240;SDS011;6687;47.790;7.322;2022-12-24T06:15:11;0.60;;;0.45;;
13240;SDS011;6687;47.790;7.322;2022-12-24T06:17:38;0.43;;;0.38;;
13240;SDS011;6687;47.790;7.322;2022-12-24T06:20:05;0.55;;;0.55;;
13240;SDS011;6687;47.790;7.322;2022-12-24T06:22:33;0.28;;;0.28;;
13240;SDS011;6687;47.790;7.322;2022-12-24T06:24:59;0.20;;;0.20;;
13240;SDS011;6687;47.790;7.322;2022-12-24T06:27:26;0.13;;;0.13;;
13240;SDS011;6687;47.790;7.322;2022-12-24T06:29:54;0.20;;;0.20;;
13240;SDS011;6687;47.790;7.322;2022-12-24T06:32:21;0.30;;;0.30;;
13240;SDS011;6687;47.790;7.322;2022-12-24T06:34:48;1.27;;;0.22;;
13240;SDS011;6687;47.790;7.322;2022-12-24T06:37:14;0.38;;;0.38;;
13240;SDS011;6687;47.790;7.322;2022-12-24T06:39:43;0.40;;;0.40;;
13240;SDS011;6687;47.790;7.322;2022-12-24T06:42:10;0.30;;;0.30;;
13240;SDS011;6687;47.790;7.322;2022-12-24T06:44:37;0.10;;;0.10;;
13240;SDS011;6687;47.790;7.322;2022-12-24T06:47:05;1.55;;;0.73;;
13240;SDS011;6687;47.790;7.322;2022-12-24T06:49:32;0.40;;;0.40;;
13240;SDS011;6687;47.790;7.322;2022-12-24T06:51:59;0.28;;;0.20;;
13240;SDS011;6687;47.790;7.322;2022-12-24T06:54:25;0.75;;;0.43;;
13240;SDS011;6687;47.790;7.322;2022-12-24T06:56:52;0.32;;;0.32;;
13240;SDS011;6687;47.790;7.322;2022-12-24T06:59:19;0.68;;;0.40;;
13240;SDS011;6687;47.790;7.322;2022-12-24T07:01:46;0.47;;;0.47;;
13240;SDS011;6687;47.790;7.322;2022-12-24T07:04:14;0.68;;;0.60;;
13240;SDS011;6687;47.790;7.322;2022-12-24T07:06:41;1.65;;;0.35;;
13240;SDS011;6687;47.790;7.322;2022-12-24T07:09:08;0.40;;;0.40;;
13240;SDS011;6687;47.790;7.322;2022-12-24T07:11:38;0.10;;;0.10;;
13240;SDS011;6687;47.790;7.322;2022-12-24T07:14:04;0.30;;;0.30;;
13240;SDS011;6687;47.790;7.322;2022-12-24T07:16:31;1.38;;;0.43;;
13240;SDS011;6687;47.790;7.322;2022-12-24T07:18:58;0.65;;;0.60;;
13240;SDS011;6687;47.790;7.322;2022-12-24T07:21:26;1.35;;;0.65;;
13240;SDS011;6687;47.790;7.322;2022-12-24T07:23:53;1.48;;;1.10;;
13240;SDS011;6687;47.790;7.322;2022-12-24T07:26:19;1.00;;;0.95;;
13240;SDS011;6687;47.790;7.322;2022-12-24T07:28:46;0.10;;;0.10;;
13240;SDS011;6687;47.790;7.322;2022-12-24T07:31:13;1.00;;;0.28;;
13240;SDS011;6687;47.790;7.322;2022-12-24T07:33:40;0.85;;;0.52;;
13240;SDS011;6687;47.790;7.322;2022-12-24T07:36:07;1.25;;;0.82;;
13240;SDS011;6687;47.790;7.322;2022-12-24T07:38:42;0.25;;;0.25;;
13240;SDS011;6687;47.790;7.322;2022-12-24T07:41:09;0.63;;;0.63;;
13240;SDS011;6687;47.790;7.322;2022-12-24T07:43:35;0.55;;;0.52;;
13240;SDS011;6687;47.790;7.322;2022-12-24T07:46:02;1.35;;;1.05;;
13240;SDS011;6687;47.790;7.322;2022-12-24T07:48:29;0.63;;;0.55;;
13240;SDS011;6687;47.790;7.322;2022-12-24T07:50:57;0.73;;;0.73;;
13240;SDS011;6687;47.790;7.322;2022-12-24T07:53:25;0.70;;;0.70;;
13240;SDS011;6687;47.790;7.322;2022-12-24T07:55:54;2.53;;;0.40;;
13240;SDS011;6687;47.790;7.322;2022-12-24T07:58:20;0.32;;;0.32;;
13240;SDS011;6687;47.790;7.322;2022-12-24T08:00:47;0.73;;;0.73;;
13240;SDS011;6687;47.790;7.322;2022-12-24T08:03:15;0.65;;;0.65;;
13240;SDS011;6687;47.790;7.322;2022-12-24T08:05:43;0.90;;;0.52;;
13240;SDS011;6687;47.790;7.322;2022-12-24T08:08:10;2.22;;;0.80;;
13240;SDS011;6687;47.790;7.322;2022-12-24T08:10:38;0.40;;;0.40;;
13240;SDS011;6687;47.790;7.322;2022-12-24T08:13:06;0.75;;;0.75;;
13240;SDS011;6687;47.790;7.322;2022-12-24T08:15:33;0.90;;;0.70;;
13240;SDS011;6687;47.790;7.322;2022-12-24T08:18:00;0.75;;;0.60;;
13240;SDS011;6687;47.790;7.322;2022-12-24T08:20:27;0.60;;;0.38;;
13240;SDS011;6687;47.790;7.322;2022-12-24T08:22:54;1.38;;;0.50;;
13240;SDS011;6687;47.790;7.322;2022-12-24T08:25:20;0.50;;;0.50;;
13240;SDS011;6687;47.790;7.322;2022-12-24T08:27:47;0.17;;;0.17;;
13240;SDS011;6687;47.790;7.322;2022-12-24T08:30:15;2.10;;;0.60;;
13240;SDS011;6687;47.790;7.322;2022-12-24T08:32:42;1.15;;;0.80;;
13240;SDS011;6687;47.790;7.322;2022-12-24T08:35:09;1.52;;;0.65;;
13240;SDS011;6687;47.790;7.322;2022-12-24T08:37:36;1.17;;;0.55;;
13240;SDS011;6687;47.790;7.322;2022-12-24T08:40:03;1.10;;;0.57;;
13240;SDS011;6687;47.790;7.322;2022-12-24T08:42:30;0.47;;;0.47;;
13240;SDS011;6687;47.790;7.322;2022-12-24T08:44:57;0.35;;;0.35;;
13240;SDS011;6687;47.790;7.322;2022-12-24T08:47:26;0.80;;;0.80;;
13240;SDS011;6687;47.790;7.322;2022-12-24T08:49:53;0.52;;;0.52;;
13240;SDS011;6687;47.790;7.322;2022-12-24T08:52:20;0.73;;;0.60;;
13240;SDS011;6687;47.790;7.322;2022-12-24T08:54:47;1.25;;;0.32;;
13240;SDS011;6687;47.790;7.322;2022-12-24T08:57:13;0.25;;;0.25;;
13240;SDS011;6687;47.790;7.322;2022-12-24T08:59:40;0.50;;;0.43;;
13240;SDS011;6687;47.790;7.322;2022-12-24T09:02:07;2.85;;;0.60;;
13240;SDS011;6687;47.790;7.322;2022-12-24T09:04:37;1.13;;;0.63;;
13240;SDS011;6687;47.790;7.322;2022-12-24T09:07:05;0.90;;;0.40;;
13240;SDS011;6687;47.790;7.322;2022-12-24T09:09:32;0.30;;;0.30;;
13240;SDS011;6687;47.790;7.322;2022-12-24T09:11:58;0.57;;;0.30;;
13240;SDS011;6687;47.790;7.322;2022-12-24T09:14:25;0.32;;;0.32;;
13240;SDS011;6687;47.790;7.322;2022-12-24T09:16:52;0.52;;;0.52;;
13240;SDS011;6687;47.790;7.322;2022-12-24T09:19:19;1.27;;;0.60;;
13240;SDS011;6687;47.790;7.322;2022-12-24T09:21:47;0.38;;;0.38;;
13240;SDS011;6687;47.790;7.322;2022-12-24T09:24:14;1.35;;;0.70;;
13240;SDS011;6687;47.790;7.322;2022-12-24T09:26:41;0.57;;;0.55;;
13240;SDS011;6687;47.790;7.322;2022-12-24T09:29:10;0.75;;;0.75;;
13240;SDS011;6687;47.790;7.322;2022-12-24T09:31:37;1.85;;;0.65;;
13240;SDS011;6687;47.790;7.322;2022-12-24T09:34:03;0.40;;;0.40;;
13240;SDS011;6687;47.790;7.322;2022-12-24T09:36:30;0.60;;;0.60;;
13240;SDS011;6687;47.790;7.322;2022-12-24T09:38:58;1.13;;;0.57;;
13240;SDS011;6687;47.790;7.322;2022-12-24T09:41:29;0.65;;;0.65;;
13240;SDS011;6687;47.790;7.322;2022-12-24T09:44:07;0.47;;;0.47;;
13240;SDS011;6687;47.790;7.322;2022-12-24T09:46:46;0.63;;;0.35;;
13240;SDS011;6687;47.790;7.322;2022-12-24T09:49:16;1.52;;;0.50;;
13240;SDS011;6687;47.790;7.322;2022-12-24T09:51:48;0.98;;;0.98;;
13240;SDS011;6687;47.790;7.322;2022-12-24T09:54:21;0.35;;;0.35;;
13240;SDS011;6687;47.790;7.322;2022-12-24T09:56:50;0.50;;;0.50;;
13240;SDS011;6687;47.790;7.322;2022-12-24T09:59:20;0.57;;;0.50;;
13240;SDS011;6687;47.790;7.322;2022-12-24T10:01:50;0.47;;;0.47;;
13240;SDS011;6687;47.790;7.322;2022-12-24T10:04:19;0.90;;;0.60;;
13240;SDS011;6687;47.790;7.322;2022-12-24T10:06:49;0.80;;;0.80;;
13240;SDS011;6687;47.790;7.322;2022-12-24T10:09:24;0.68;;;0.68;;
13240;SDS011;6687;47.790;7.322;2022-12-24T10:11:59;0.68;;;0.50;;
13240;SDS011;6687;47.790;7.322;2022-12-24T10:14:38;0.32;;;0.32;;
13240;SDS011;6687;47.790;7.322;2022-12-24T10:17:26;0.50;;;0.50;;
13240;SDS011;6687;47.790;7.322;2022-12-24T10:20:07;0.85;;;0.63;;
13240;SDS011;6687;47.790;7.322;2022-12-24T10:22:56;2.78;;;1.00;;
13240;SDS011;6687;47.790;7.322;2022-12-24T10:25:34;1.17;;;0.82;;
13240;SDS011;6687;47.790;7.322;2022-12-24T10:28:11;0.75;;;0.52;;
13240;SDS011;6687;47.790;7.322;2022-12-24T10:30:40;0.70;;;0.63;;
13240;SDS011;6687;47.790;7.322;2022-12-24T10:33:10;0.50;;;0.43;;
13240;SDS011;6687;47.790;7.322;2022-12-24T10:35:44;0.20;;;0.15;;
13240;SDS011;6687;47.790;7.322;2022-12-24T10:38:14;0.30;;;0.30;;
13240;SDS011;6687;47.790;7.322;2022-12-24T10:40:43;1.00;;;0.75;;
13240;SDS011;6687;47.790;7.322;2022-12-24T10:43:13;0.28;;;0.28;;
13240;SDS011;6687;47.790;7.322;2022-12-24T10:45:41;0.40;;;0.38;;
13240;SDS011;6687;47.790;7.322;2022-12-24T10:48:13;1.08;;;0.65;;
13240;SDS011;6687;47.790;7.322;2022-12-24T10:50:49;0.40;;;0.40;;
13240;SDS011;6687;47.790;7.322;2022-12-24T10:53:21;0.75;;;0.75;;
13240;SDS011;6687;47.790;7.322;2022-12-24T10:56:01;0.68;;;0.50;;
13240;SDS011;6687;47.790;7.322;2022-12-24T10:58:30;0.50;;;0.50;;
13240;SDS011;6687;47.790;7.322;2022-12-24T11:00:58;0.45;;;0.43;;
13240;SDS011;6687;47.790;7.322;2022-12-24T11:03:28;1.85;;;0.80;;
13240;SDS011;6687;47.790;7.322;2022-12-24T11:06:01;1.35;;;0.70;;
13240;SDS011;6687;47.790;7.322;2022-12-24T11:08:33;0.40;;;0.40;;
13240;SDS011;6687;47.790;7.322;2022-12-24T11:11:02;0.60;;;0.60;;
13240;SDS011;6687;47.790;7.322;2022-12-24T11:13:31;0.45;;;0.45;;
13240;SDS011;6687;47.790;7.322;2022-12-24T11:16:01;0.22;;;0.22;;
13240;SDS011;6687;47.790;7.322;2022-12-24T11:18:31;0.35;;;0.35;;
13240;SDS011;6687;47.790;7.322;2022-12-24T11:21:00;0.70;;;0.70;;
13240;SDS011;6687;47.790;7.322;2022-12-24T11:23:27;0.20;;;0.20;;
13240;SDS011;6687;47.790;7.322;2022-12-24T11:25:54;1.15;;;0.40;;
13240;SDS011;6687;47.790;7.322;2022-12-24T11:28:25;0.25;;;0.25;;
13240;SDS011;6687;47.790;7.322;2022-12-24T11:30:55;0.20;;;0.20;;
13240;SDS011;6687;47.790;7.322;2022-12-24T11:33:28;0.30;;;0.30;;
13240;SDS011;6687;47.790;7.322;2022-12-24T11:35:57;0.47;;;0.47;;
13240;SDS011;6687;47.790;7.322;2022-12-24T11:38:27;0.43;;;0.43;;
13240;SDS011;6687;47.790;7.322;2022-12-24T11:41:05;2.25;;;0.35;;
13240;SDS011;6687;47.790;7.322;2022-12-24T11:43:46;1.00;;;0.90;;
13240;SDS011;6687;47.790;7.322;2022-12-24T11:46:17;0.60;;;0.57;;
13240;SDS011;6687;47.790;7.322;2022-12-24T11:48:46;0.60;;;0.55;;
13240;SDS011;6687;47.790;7.322;2022-12-24T11:51:21;0.88;;;0.38;;
13240;SDS011;6687;47.790;7.322;2022-12-24T11:53:50;2.00;;;0.85;;
13240;SDS011;6687;47.790;7.322;2022-12-24T11:56:31;0.45;;;0.40;;
13240;SDS011;6687;47.790;7.322;2022-12-24T11:59:04;1.13;;;0.63;;
13240;SDS011;6687;47.790;7.322;2022-12-24T12:01:42;1.17;;;1.08;;
13240;SDS011;6687;47.790;7.322;2022-12-24T12:04:19;0.47;;;0.47;;
13240;SDS011;6687;47.790;7.322;2022-12-24T12:06:47;1.02;;;0.85;;
13240;SDS011;6687;47.790;7.322;2022-12-24T12:09:19;0.47;;;0.47;;
13240;SDS011;6687;47.790;7.322;2022-12-24T12:11:51;0.73;;;0.65;;
13240;SDS011;6687;47.790;7.322;2022-12-24T12:14:25;0.77;;;0.77;;
13240;SDS011;6687;47.790;7.322;2022-12-24T12:16:57;0.57;;;0.57;;
13240;SDS011;6687;47.790;7.322;2022-12-24T12:19:30;2.05;;;0.40;;
13240;SDS011;6687;47.790;7.322;2022-12-24T12:22:06;0.90;;;0.40;;
13240;SDS011;6687;47.790;7.322;2022-12-24T12:24:49;1.25;;;0.20;;
13240;SDS011;6687;47.790;7.322;2022-12-24T12:27:22;0.73;;;0.73;;
13240;SDS011;6687;47.790;7.322;2022-12-24T12:29:56;0.25;;;0.25;;
13240;SDS011;6687;47.790;7.322;2022-12-24T12:32:27;0.57;;;0.57;;
13240;SDS011;6687;47.790;7.322;2022-12-24T12:35:04;0.57;;;0.57;;
13240;SDS011;6687;47.790;7.322;2022-12-24T12:37:40;0.82;;;0.50;;
13240;SDS011;6687;47.790;7.322;2022-12-24T12:40:11;0.30;;;0.30;;
13240;SDS011;6687;47.790;7.322;2022-12-24T12:42:40;0.30;;;0.30;;
13240;SDS011;6687;47.790;7.322;2022-12-24T12:45:19;1.08;;;0.90;;
13240;SDS011;6687;47.790;7.322;2022-12-24T12:47:57;0.40;;;0.40;;
13240;SDS011;6687;47.790;7.322;2022-12-24T12:50:36;0.43;;;0.43;;
13240;SDS011;6687;47.790;7.322;2022-12-24T12:53:14;0.75;;;0.63;;
13240;SDS011;6687;47.790;7.322;2022-12-24T12:56:05;0.77;;;0.50;;
13240;SDS011;6687;47.790;7.322;2022-12-24T12:58:40;0.55;;;0.32;;
13240;SDS011;6687;47.790;7.322;2022-12-24T13:01:13;0.75;;;0.75;;
13240;SDS011;6687;47.790;7.322;2022-12-24T13:04:07;1.00;;;0.65;;
13240;SDS011;6687;47.790;7.322;2022-12-24T13:06:50;0.40;;;0.40;;
13240;SDS011;6687;47.790;7.322;2022-12-24T13:09:46;0.43;;;0.43;;
13240;SDS011;6687;47.790;7.322;2022-12-24T13:12:37;0.50;;;0.50;;
13240;SDS011;6687;47.790;7.322;2022-12-24T13:18:29;0.57;;;0.57;;
13240;SDS011;6687;47.790;7.322;2022-12-24T13:21:11;0.98;;;0.98;;
13240;SDS011;6687;47.790;7.322;2022-12-24T13:23:45;0.57;;;0.57;;
13240;SDS011;6687;47.790;7.322;2022-12-24T13:26:13;0.75;;;0.75;;
13240;SDS011;6687;47.790;7.322;2022-12-24T13:28:41;0.50;;;0.50;;
13240;SDS011;6687;47.790;7.322;2022-12-24T13:31:22;0.93;;;0.93;;
13240;SDS011;6687;47.790;7.322;2022-12-24T13:33:57;1.45;;;0.60;;
13240;SDS011;6687;47.790;7.322;2022-12-24T13:39:38;0.70;;;0.70;;
13240;SDS011;6687;47.790;7.322;2022-12-24T13:42:45;1.00;;;1.00;;
13240;SDS011;6687;47.790;7.322;2022-12-24T13:48:13;0.77;;;0.77;;
13240;SDS011;6687;47.790;7.322;2022-12-24T13:50:52;1.17;;;1.08;;
13240;SDS011;6687;47.790;7.322;2022-12-24T13:53:21;0.68;;;0.68;;
13240;SDS011;6687;47.790;7.322;2022-12-24T13:55:54;1.67;;;1.10;;
13240;SDS011;6687;47.790;7.322;2022-12-24T13:58:23;1.15;;;1.02;;
13240;SDS011;6687;47.790;7.322;2022-12-24T14:00:52;1.58;;;1.00;;
13240;SDS011;6687;47.790;7.322;2022-12-24T14:03:23;1.05;;;0.80;;
13240;SDS011;6687;47.790;7.322;2022-12-24T14:05:56;1.67;;;0.98;;
13240;SDS011;6687;47.790;7.322;2022-12-24T14:08:27;0.98;;;0.65;;
13240;SDS011;6687;47.790;7.322;2022-12-24T14:11:00;5.57;;;0.95;;
13240;SDS011;6687;47.790;7.322;2022-12-24T14:16:40;0.70;;;0.70;;
13240;SDS011;6687;47.790;7.322;2022-12-24T14:19:09;1.02;;;0.60;;
13240;SDS011;6687;47.790;7.322;2022-12-24T14:21:42;0.70;;;0.70;;
13240;SDS011;6687;47.790;7.322;2022-12-24T14:24:17;0.57;;;0.57;;
13240;SDS011;6687;47.790;7.322;2022-12-24T14:26:49;0.80;;;0.80;;
13240;SDS011;6687;47.790;7.322;2022-12-24T14:29:21;0.57;;;0.57;;
13240;SDS011;6687;47.790;7.322;2022-12-24T14:31:54;1.80;;;0.90;;
13240;SDS011;6687;47.790;7.322;2022-12-24T14:34:22;1.55;;;0.77;;
13240;SDS011;6687;47.790;7.322;2022-12-24T14:36:51;1.45;;;0.80;;
13240;SDS011;6687;47.790;7.322;2022-12-24T14:39:21;0.50;;;0.50;;
13240;SDS011;6687;47.790;7.322;2022-12-24T14:41:53;0.60;;;0.40;;
13240;SDS011;6687;47.790;7.322;2022-12-24T14:44:30;2.70;;;0.93;;
13240;SDS011;6687;47.790;7.322;2022-12-24T14:47:06;0.80;;;0.60;;
13240;SDS011;6687;47.790;7.322;2022-12-24T14:49:45;0.60;;;0.60;;
13240;SDS011;6687;47.790;7.322;2022-12-24T14:52:26;2.63;;;1.05;;
13240;SDS011;6687;47.790;7.322;2022-12-24T14:55:09;0.85;;;0.65;;
13240;SDS011;6687;47.790;7.322;2022-12-24T14:58:11;1.88;;;1.05;;
13240;SDS011;6687;47.790;7.322;2022-12-24T15:00:48;0.57;;;0.57;;
13240;SDS011;6687;47.790;7.322;2022-12-24T15:03:21;0.47;;;0.47;;
13240;SDS011;6687;47.790;7.322;2022-12-24T15:05:49;0.50;;;0.50;;
13240;SDS011;6687;47.790;7.322;2022-12-24T15:08:22;0.70;;;0.40;;
13240;SDS011;6687;47.790;7.322;2022-12-24T15:10:53;1.33;;;1.08;;
13240;SDS011;6687;47.790;7.322;2022-12-24T15:13:25;0.63;;;0.63;;
13240;SDS011;6687;47.790;7.322;2022-12-24T15:15:58;0.55;;;0.40;;
13240;SDS011;6687;47.790;7.322;2022-12-24T15:18:27;0.20;;;0.20;;
13240;SDS011;6687;47.790;7.322;2022-12-24T15:20:57;0.47;;;0.47;;
13240;SDS011;6687;47.790;7.322;2022-12-24T15:23:29;0.40;;;0.38;;
13240;SDS011;6687;47.790;7.322;2022-12-24T15:26:05;0.30;;;0.30;;
13240;SDS011;6687;47.790;7.322;2022-12-24T15:28:34;0.35;;;0.30;;
13240;SDS011;6687;47.790;7.322;2022-12-24T15:31:03;0.80;;;0.80;;
13240;SDS011;6687;47.790;7.322;2022-12-24T15:33:34;1.65;;;1.00;;
13240;SDS011;6687;47.790;7.322;2022-12-24T15:36:01;0.32;;;0.32;;
13240;SDS011;6687;47.790;7.322;2022-12-24T15:38:30;0.60;;;0.60;;
13240;SDS011;6687;47.790;7.322;2022-12-24T15:41:01;0.30;;;0.30;;
13240;SDS011;6687;47.790;7.322;2022-12-24T15:43:30;1.27;;;1.00;;
13240;SDS011;6687;47.790;7.322;2022-12-24T15:45:57;0.82;;;0.75;;
13240;SDS011;6687;47.790;7.322;2022-12-24T15:48:25;0.73;;;0.50;;
13240;SDS011;6687;47.790;7.322;2022-12-24T15:50:55;1.58;;;0.90;;
13240;SDS011;6687;47.790;7.322;2022-12-24T15:53:25;0.40;;;0.40;;
13240;SDS011;6687;47.790;7.322;2022-12-24T15:56:06;0.50;;;0.50;;
13240;SDS011;6687;47.790;7.322;2022-12-24T15:58:35;0.68;;;0.40;;
13240;SDS011;6687;47.790;7.322;2022-12-24T16:01:05;1.40;;;1.13;;
13240;SDS011;6687;47.790;7.322;2022-12-24T16:03:58;0.65;;;0.47;;
13240;SDS011;6687;47.790;7.322;2022-12-24T16:06:25;0.50;;;0.50;;
13240;SDS011;6687;47.790;7.322;2022-12-24T16:08:53;0.75;;;0.20;;
13240;SDS011;6687;47.790;7.322;2022-12-24T16:11:23;0.30;;;0.30;;
13240;SDS011;6687;47.790;7.322;2022-12-24T16:13:57;0.95;;;0.77;;
13240;SDS011;6687;47.790;7.322;2022-12-24T16:16:31;0.30;;;0.30;;
13240;SDS011;6687;47.790;7.322;2022-12-24T16:19:00;0.40;;;0.40;;
13240;SDS011;6687;47.790;7.322;2022-12-24T16:21:30;7.30;;;3.53;;
13240;SDS011;6687;47.790;7.322;2022-12-24T16:24:01;0.88;;;0.68;;
13240;SDS011;6687;47.790;7.322;2022-12-24T16:26:32;0.57;;;0.57;;
13240;SDS011;6687;47.790;7.322;2022-12-24T16:29:00;0.30;;;0.30;;
13240;SDS011;6687;47.790;7.322;2022-12-24T16:31:27;0.50;;;0.50;;
13240;SDS011;6687;47.790;7.322;2022-12-24T16:33:57;1.00;;;0.55;;
13240;SDS011;6687;47.790;7.322;2022-12-24T16:36:24;0.50;;;0.50;;
13240;SDS011;6687;47.790;7.322;2022-12-24T16:38:51;1.52;;;0.60;;
13240;SDS011;6687;47.790;7.322;2022-12-24T16:41:36;0.88;;;0.88;;
13240;SDS011;6687;47.790;7.322;2022-12-24T16:44:17;1.42;;;1.33;;
13240;SDS011;6687;47.790;7.322;2022-12-24T16:46:44;2.15;;;1.42;;
13240;SDS011;6687;47.790;7.322;2022-12-24T16:49:10;1.55;;;1.30;;
13240;SDS011;6687;47.790;7.322;2022-12-24T16:51:41;2.22;;;1.77;;
13240;SDS011;6687;47.790;7.322;2022-12-24T16:54:09;1.95;;;1.73;;
13240;SDS011;6687;47.790;7.322;2022-12-24T16:56:38;1.38;;;1.27;;
13240;SDS011;6687;47.790;7.322;2022-12-24T16:59:05;1.02;;;1.02;;
13240;SDS011;6687;47.790;7.322;2022-12-24T17:01:31;1.20;;;0.98;;
13240;SDS011;6687;47.790;7.322;2022-12-24T17:03:58;0.93;;;0.65;;
13240;SDS011;6687;47.790;7.322;2022-12-24T17:06:25;1.05;;;1.05;;
13240;SDS011;6687;47.790;7.322;2022-12-24T17:08:52;0.93;;;0.93;;
13240;SDS011;6687;47.790;7.322;2022-12-24T17:11:20;1.00;;;0.93;;
13240;SDS011;6687;47.790;7.322;2022-12-24T17:13:49;1.98;;;1.48;;
13240;SDS011;6687;47.790;7.322;2022-12-24T17:16:16;2.35;;;1.58;;
13240;SDS011;6687;47.790;7.322;2022-12-24T17:18:43;1.33;;;1.10;;
13240;SDS011;6687;47.790;7.322;2022-12-24T17:21:09;1.40;;;1.30;;
13240;SDS011;6687;47.790;7.322;2022-12-24T17:23:38;1.95;;;1.13;;
13240;SDS011;6687;47.790;7.322;2022-12-24T17:26:06;3.67;;;2.88;;
13240;SDS011;6687;47.790;7.322;2022-12-24T17:28:33;3.08;;;1.65;;
13240;SDS011;6687;47.790;7.322;2022-12-24T17:31:06;1.77;;;1.63;;
13240;SDS011;6687;47.790;7.322;2022-12-24T17:33:33;3.55;;;1.98;;
13240;SDS011;6687;47.790;7.322;2022-12-24T17:36:00;2.80;;;2.20;;
13240;SDS011;6687;47.790;7.322;2022-12-24T17:38:27;3.75;;;1.83;;
13240;SDS011;6687;47.790;7.322;2022-12-24T17:40:58;3.45;;;2.15;;
13240;SDS011;6687;47.790;7.322;2022-12-24T17:43:26;4.32;;;2.78;;
13240;SDS011;6687;47.790;7.322;2022-12-24T17:45:52;6.35;;;3.45;;
13240;SDS011;6687;47.790;7.322;2022-12-24T17:48:21;2.97;;;1.67;;
13240;SDS011;6687;47.790;7.322;2022-12-24T17:50:47;3.75;;;2.75;;
13240;SDS011;6687;47.790;7.322;2022-12-24T17:53:14;3.42;;;2.38;;
13240;SDS011;6687;47.790;7.322;2022-12-24T17:55:41;4.45;;;2.05;;
13240;SDS011;6687;47.790;7.322;2022-12-24T17:58:08;1.40;;;1.30;;
13240;SDS011;6687;47.790;7.322;2022-12-24T18:00:35;2.75;;;1.90;;
13240;SDS011;6687;47.790;7.322;2022-12-24T18:03:02;1.42;;;1.33;;
13240;SDS011;6687;47.790;7.322;2022-12-24T18:05:32;3.97;;;2.65;;
13240;SDS011;6687;47.790;7.322;2022-12-24T18:08:00;3.22;;;2.17;;
13240;SDS011;6687;47.790;7.322;2022-12-24T18:10:28;2.88;;;2.63;;
13240;SDS011;6687;47.790;7.322;2022-12-24T18:12:56;3.42;;;1.90;;
13240;SDS011;6687;47.790;7.322;2022-12-24T18:15:24;3.90;;;1.85;;
13240;SDS011;6687;47.790;7.322;2022-12-24T18:17:53;4.43;;;2.40;;
13240;SDS011;6687;47.790;7.322;2022-12-24T18:20:21;1.38;;;1.27;;
13240;SDS011;6687;47.790;7.322;2022-12-24T18:22:51;3.30;;;1.63;;
13240;SDS011;6687;47.790;7.322;2022-12-24T18:25:20;1.65;;;1.42;;
13240;SDS011;6687;47.790;7.322;2022-12-24T18:27:49;1.88;;;1.77;;
13240;SDS011;6687;47.790;7.322;2022-12-24T18:30:17;3.03;;;2.67;;
13240;SDS011;6687;47.790;7.322;2022-12-24T18:32:45;2.03;;;1.77;;
13240;SDS011;6687;47.790;7.322;2022-12-24T18:35:13;4.00;;;2.85;;
13240;SDS011;6687;47.790;7.322;2022-12-24T18:37:43;2.05;;;1.80;;
13240;SDS011;6687;47.790;7.322;2022-12-24T18:40:13;3.78;;;3.03;;
13240;SDS011;6687;47.790;7.322;2022-12-24T18:42:42;1.50;;;1.40;;
13240;SDS011;6687;47.790;7.322;2022-12-24T18:45:10;2.28;;;2.08;;
13240;SDS011;6687;47.790;7.322;2022-12-24T18:47:38;1.50;;;1.40;;
13240;SDS011;6687;47.790;7.322;2022-12-24T18:50:07;3.58;;;2.10;;
13240;SDS011;6687;47.790;7.322;2022-12-24T18:52:35;1.40;;;1.25;;
13240;SDS011;6687;47.790;7.322;2022-12-24T18:55:03;1.10;;;1.00;;
13240;SDS011;6687;47.790;7.322;2022-12-24T18:57:34;1.00;;;0.90;;
13240;SDS011;6687;47.790;7.322;2022-12-24T19:00:02;0.82;;;0.82;;
13240;SDS011;6687;47.790;7.322;2022-12-24T19:02:31;1.73;;;1.40;;
13240;SDS011;6687;47.790;7.322;2022-12-24T19:04:59;2.05;;;1.45;;
13240;SDS011;6687;47.790;7.322;2022-12-24T19:07:28;1.67;;;1.10;;
13240;SDS011;6687;47.790;7.322;2022-12-24T19:09:56;2.10;;;1.30;;
13240;SDS011;6687;47.790;7.322;2022-12-24T19:12:25;1.27;;;1.17;;
13240;SDS011;6687;47.790;7.322;2022-12-24T19:14:55;2.17;;;1.98;;
13240;SDS011;6687;47.790;7.322;2022-12-24T19:17:23;2.25;;;1.05;;
13240;SDS011;6687;47.790;7.322;2022-12-24T19:19:50;2.15;;;1.50;;
13240;SDS011;6687;47.790;7.322;2022-12-24T19:22:19;1.63;;;1.52;;
13240;SDS011;6687;47.790;7.322;2022-12-24T19:24:48;1.10;;;1.10;;
13240;SDS011;6687;47.790;7.322;2022-12-24T19:27:16;1.90;;;1.50;;
13240;SDS011;6687;47.790;7.322;2022-12-24T19:29:45;1.27;;;1.17;;
13240;SDS011;6687;47.790;7.322;2022-12-24T19:32:14;3.75;;;1.73;;
13240;SDS011;6687;47.790;7.322;2022-12-24T19:34:43;3.22;;;2.15;;
13240;SDS011;6687;47.790;7.322;2022-12-24T19:37:12;2.42;;;2.00;;
13240;SDS011;6687;47.790;7.322;2022-12-24T19:39:41;2.05;;;1.95;;
13240;SDS011;6687;47.790;7.322;2022-12-24T19:42:09;2.67;;;1.88;;
13240;SDS011;6687;47.790;7.322;2022-12-24T19:44:36;2.08;;;1.77;;
13240;SDS011;6687;47.790;7.322;2022-12-24T19:47:04;5.20;;;3.03;;
13240;SDS011;6687;47.790;7.322;2022-12-24T19:49:34;2.38;;;2.17;;
13240;SDS011;6687;47.790;7.322;2022-12-24T19:52:02;3.17;;;2.38;;
13240;SDS011;6687;47.790;7.322;2022-12-24T19:54:31;1.90;;;1.80;;
13240;SDS011;6687;47.790;7.322;2022-12-24T19:56:59;2.72;;;2.13;;
13240;SDS011;6687;47.790;7.322;2022-12-24T19:59:27;1.80;;;1.50;;
13240;SDS011;6687;47.790;7.322;2022-12-24T20:01:54;1.63;;;1.50;;
13240;SDS011;6687;47.790;7.322;2022-12-24T20:04:22;1.70;;;1.60;;
13240;SDS011;6687;47.790;7.322;2022-12-24T20:06:52;1.98;;;1.30;;
13240;SDS011;6687;47.790;7.322;2022-12-24T20:09:20;1.70;;;1.60;;
13240;SDS011;6687;47.790;7.322;2022-12-24T20:11:48;1.75;;;1.40;;
13240;SDS011;6687;47.790;7.322;2022-12-24T20:14:17;0.52;;;0.52;;
13240;SDS011;6687;47.790;7.322;2022-12-24T20:16:45;2.10;;;1.58;;
13240;SDS011;6687;47.790;7.322;2022-12-24T20:19:14;1.30;;;1.20;;
13240;SDS011;6687;47.790;7.322;2022-12-24T20:21:42;2.50;;;1.45;;
13240;SDS011;6687;47.790;7.322;2022-12-24T20:24:12;1.33;;;1.23;;
13240;SDS011;6687;47.790;7.322;2022-12-24T20:26:40;1.48;;;1.27;;
13240;SDS011;6687;47.790;7.322;2022-12-24T20:29:08;1.27;;;1.15;;
13240;SDS011;6687;47.790;7.322;2022-12-24T20:31:38;0.90;;;0.90;;
13240;SDS011;6687;47.790;7.322;2022-12-24T20:34:06;1.20;;;1.10;;
13240;SDS011;6687;47.790;7.322;2022-12-24T20:36:36;1.00;;;0.90;;
13240;SDS011;6687;47.790;7.322;2022-12-24T20:39:05;0.85;;;0.80;;
13240;SDS011;6687;47.790;7.322;2022-12-24T20:41:35;0.77;;;0.68;;
13240;SDS011;6687;47.790;7.322;2022-12-24T20:44:03;0.80;;;0.80;;
13240;SDS011;6687;47.790;7.322;2022-12-24T20:46:31;0.80;;;0.80;;
13240;SDS011;6687;47.790;7.322;2022-12-24T20:48:59;0.35;;;0.28;;
13240;SDS011;6687;47.790;7.322;2022-12-24T20:51:26;0.60;;;0.60;;
13240;SDS011;6687;47.790;7.322;2022-12-24T20:53:56;1.30;;;0.80;;
13240;SDS011;6687;47.790;7.322;2022-12-24T20:56:26;0.65;;;0.65;;
13240;SDS011;6687;47.790;7.322;2022-12-24T20:58:57;0.63;;;0.63;;
13240;SDS011;6687;47.790;7.322;2022-12-24T21:01:26;0.63;;;0.60;;
13240;SDS011;6687;47.790;7.322;2022-12-24T21:03:55;0.82;;;0.82;;
13240;SDS011;6687;47.790;7.322;2022-12-24T21:06:24;0.70;;;0.70;;
13240;SDS011;6687;47.790;7.322;2022-12-24T21:08:53;0.93;;;0.85;;
13240;SDS011;6687;47.790;7.322;2022-12-24T21:11:21;0.80;;;0.77;;
13240;SDS011;6687;47.790;7.322;2022-12-24T21:14:07;0.68;;;0.68;;
13240;SDS011;6687;47.790;7.322;2022-12-24T21:16:36;0.93;;;0.70;;
13240;SDS011;6687;47.790;7.322;2022-12-24T21:19:04;0.80;;;0.73;;
13240;SDS011;6687;47.790;7.322;2022-12-24T21:21:33;0.75;;;0.63;;
13240;SDS011;6687;47.790;7.322;2022-12-24T21:24:02;1.45;;;1.00;;
13240;SDS011;6687;47.790;7.322;2022-12-24T21:26:32;0.80;;;0.80;;
13240;SDS011;6687;47.790;7.322;2022-12-24T21:29:01;0.90;;;0.90;;
13240;SDS011;6687;47.790;7.322;2022-12-24T21:31:32;1.02;;;0.77;;
13240;SDS011;6687;47.790;7.322;2022-12-24T21:34:00;1.02;;;1.02;;
13240;SDS011;6687;47.790;7.322;2022-12-24T21:36:29;1.23;;;0.73;;
13240;SDS011;6687;47.790;7.322;2022-12-24T21:38:57;0.85;;;0.85;;
13240;SDS011;6687;47.790;7.322;2022-12-24T21:41:26;0.77;;;0.73;;
13240;SDS011;6687;47.790;7.322;2022-12-24T21:43:54;1.13;;;1.05;;